Clearbrook, Washington
Current Conditions -  °F | °C
As of 5:00 AM on Thursday 23 Oct 2014 (Local Time) from CYXX Reporting Station
Overcast Overcast  
Wind Chill: 10°   Ceiling: 5000
Heat Index: 10°   Visibility: 15mi
Dew Point:   Wind: 0mph
Humidity: 94%   Direction: NA
Pressure: 29.69"   Gusts: NA
Location:  48.9612°N, 122.12°W
Report Text: CYXX 231200Z 00000KT 15SM FEW030 BKN050 OVC070 10/09 A2969 RMK SC1SC6AC1 SLP056
Loading
Personal Weather Stations






























Interactive Weather Map
Tropical Storm Tracking
New forecast layout! Learn more

10-Day Weather Forecast

Advertisements
Track Severe Weather on mobile